Redding Municipal Airport
KRDD : now visible

Airfield :











YOU CAN JOIN US ON...

 
LOGIN :

Register | Disclaimer

   EN    FR    IT 

 









Legend :    VFR   Marginal VFR   IFR   Intensive IFR   Very Intensive IFR
Visi :
Ceiling :
>= 8 km
>= 3000ft
5 to 8 km
1000 to 3000 ft
1500m to 5 km
500 to 1000 ft
800 to 1500m
200 to 500 ft
< 800m
< 200 ft
Symbols :   Thunderstorms  Fog  Heavy snow  Heavy precipitations  Wind > 20 kt






- Airport Elevation : 505 ft
- IATA code : RDD


KRDD - Redding Municipal

CURRENT METAR :
  • 131553Z 35006KT 10SM CLR 34/12 A2981 RMK AO2 SLP084 T03390117 $

EXPIRED METARs :
  • 131453Z 03003KT 10SM CLR 31/13 A2981 RMK AO2 SLP085 T03060128 53008 $
  • 131353Z 00000KT 10SM CLR 27/13 A2980 RMK AO2 SLP082 T02670133 $
  • 131253Z AUTO 00000KT 10SM CLR 27/13 A2979 RMK AO2 SLP079 T02670128 $
  • 131153Z AUTO 00000KT 10SM CLR 28/13 A2979 RMK AO2 SLP077 T02780128 10344 20278 $

TAF KRDD
Valid from the 13 at 12:00 until the 14 at 12:00 UTC


131120Z 1312/1412 VRB04KT P6SM SCT250
FM131900 19007KT P6SM BKN250
FM132100 17012G18KT P6SM BKN200
FM140400 17005KT P6SM BKN200
KZOA FIR / North America



MET'MAP, your aeronautical weather chart ! - Copyright ORBIFLY December 2007 - Disclaimer

ORBIFLY MET'MAP TEAM :

Programming & Development : Alexandra Zaïnal
Original concept : Baudouin d'Aumeries
Technical & hardware support : Manuel Goepfert
Assistance : Marc-Olivier Méhu




SOURCES & CREDITS :

   NOAA       Earth
Advisory